Terminal Aerodrome Forecast
Issued by NWS Jackson, MS

Home | Current Version | Previous Version | Text Only | Print | Product List | Glossary On
Versions: 1 2 3 4 5 6 7 8 9 10 11 12
677
FTUS44 KJAN 271721
TAFHBG
TAF
KHBG 271721Z 2718/2818 20007KT P6SM BKN025 BKN250
     FM272300 20008KT P6SM BKN050 BKN250
     FM280500 19004KT P6SM BKN025 BKN250
     FM281200 19005KT 5SM BR BKN008 BKN025
     FM281400 21009KT P6SM BKN015 BKN250=

USA.gov is the U.S. government's official web portal to all federal, state and local government web resources and services.